createdAt,value
2022-10-25T00:05:27.764Z,98956.22
2022-10-25T00:11:33.090Z,98957.50
2022-10-25T00:17:34.977Z,98959.00
2022-10-25T00:23:37.135Z,98956.97
2022-10-25T00:29:39.193Z,98964.41
2022-10-25T00:35:46.424Z,98958.59
2022-10-25T00:41:48.759Z,98948.50
2022-10-25T00:48:10.867Z,98950.41
2022-10-25T00:54:20.461Z,98952.59
2022-10-25T01:00:22.748Z,98956.44
2022-10-25T01:06:41.230Z,98951.31
2022-10-25T01:12:48.719Z,98956.03
2022-10-25T01:19:40.720Z,98945.22
2022-10-25T01:26:26.929Z,98946.50
2022-10-25T01:32:59.844Z,98933.31
2022-10-25T01:39:33.146Z,98942.16
2022-10-25T01:46:24.475Z,98944.84
2022-10-25T01:52:27.380Z,98948.91
2022-10-25T01:59:00.410Z,98952.16
2022-10-25T02:05:39.981Z,98946.59
2022-10-25T02:11:42.131Z,98962.50
2022-10-25T02:17:55.784Z,98958.56
2022-10-25T02:23:59.962Z,98964.28
2022-10-25T02:30:02.387Z,98970.56
2022-10-25T02:36:12.564Z,98969.53
2022-10-25T02:42:14.450Z,98972.06
2022-10-25T02:48:16.356Z,98973.22
2022-10-25T02:54:18.359Z,98971.94
2022-10-25T03:00:20.341Z,98981.44
2022-10-25T03:06:22.490Z,98992.66
2022-10-25T03:12:24.417Z,99000.16
2022-10-25T03:18:26.445Z,98983.59
2022-10-25T03:24:28.369Z,98980.69
2022-10-25T03:30:31.507Z,98992.66
2022-10-25T03:36:33.460Z,98996.00
2022-10-25T03:42:35.328Z,99005.50
2022-10-25T03:48:37.447Z,99011.94
2022-10-25T03:54:39.414Z,99011.50
2022-10-25T04:00:41.458Z,99016.06
2022-10-25T04:06:43.693Z,99025.94
2022-10-25T04:12:46.952Z,99027.16
2022-10-25T04:18:53.269Z,99028.38
2022-10-25T04:24:55.270Z,99032.31
2022-10-25T04:30:57.304Z,99031.72
2022-10-25T04:36:59.210Z,99042.34
2022-10-25T04:43:13.378Z,99039.72
2022-10-25T04:49:16.144Z,99035.53
2022-10-25T04:55:18.051Z,99041.72
2022-10-25T05:01:20.156Z,99043.69
2022-10-25T05:07:22.759Z,99053.66
2022-10-25T05:13:24.769Z,99067.28
2022-10-25T05:19:27.015Z,99076.75
2022-10-25T05:25:28.957Z,99071.53
2022-10-25T05:31:31.566Z,99073.03
2022-10-25T05:37:34.231Z,99081.72
2022-10-25T05:43:36.174Z,99085.47
2022-10-25T05:49:40.387Z,99094.59
2022-10-25T05:55:42.444Z,99094.94
2022-10-25T06:01:46.793Z,99094.38
2022-10-25T06:07:49.503Z,99101.78
2022-10-25T06:13:53.156Z,99107.41
2022-10-25T06:19:59.523Z,99121.69
2022-10-25T06:26:04.824Z,99134.66
2022-10-25T06:32:06.759Z,99130.00
2022-10-25T06:38:16.319Z,99138.91
2022-10-25T06:44:18.698Z,99149.47
2022-10-25T06:50:20.608Z,99159.16
2022-10-25T06:56:23.114Z,99160.00
2022-10-25T07:02:25.254Z,99186.38
2022-10-25T07:08:27.352Z,99188.78
2022-10-25T07:14:29.282Z,99191.34
2022-10-25T07:20:31.502Z,99199.94
2022-10-25T07:26:35.181Z,99199.59
2022-10-25T07:32:52.801Z,99207.06
2022-10-25T07:38:57.689Z,99213.22
2022-10-25T07:51:37.560Z,99221.13
2022-10-25T07:57:39.724Z,99218.44
2022-10-25T08:03:41.679Z,99226.22
2022-10-25T08:09:44.144Z,99222.56
2022-10-25T08:15:55.036Z,99239.13
2022-10-25T08:21:57.070Z,99246.38
2022-10-25T08:27:59.756Z,99244.75
2022-10-25T08:34:02.337Z,99260.41
2022-10-25T08:47:01.754Z,99265.44
2022-10-25T08:53:12.496Z,99263.69
2022-10-25T08:59:21.086Z,99273.78
2022-10-25T09:05:51.213Z,99291.56
2022-10-25T09:12:29.049Z,99292.38
2022-10-25T09:18:48.521Z,99291.75
2022-10-25T09:25:09.206Z,99302.84
2022-10-25T09:31:16.734Z,99307.81
2022-10-25T09:37:27.075Z,99315.22
2022-10-25T09:43:56.705Z,99299.81
2022-10-25T09:50:29.379Z,99309.19
2022-10-25T09:56:31.309Z,99323.56
2022-10-25T10:02:33.590Z,99331.09
2022-10-25T10:08:37.559Z,99329.00
2022-10-25T10:14:55.392Z,99331.78
2022-10-25T10:21:12.140Z,99328.00
2022-10-25T10:27:27.844Z,99318.44
2022-10-25T10:33:33.101Z,99329.56
2022-10-25T10:39:46.014Z,99327.22
2022-10-25T10:45:52.548Z,99323.34
2022-10-25T10:51:54.505Z,99325.69
2022-10-25T10:58:26.995Z,99323.56
2022-10-25T11:04:29.523Z,99336.88
2022-10-25T11:10:40.034Z,99345.56
2022-10-25T11:17:19.512Z,99350.91
2022-10-25T11:24:06.855Z,99358.41
2022-10-25T11:30:08.817Z,99355.38
2022-10-25T11:36:45.330Z,99361.44
2022-10-25T11:50:57.002Z,99356.00
2022-10-25T11:57:43.471Z,99361.41
2022-10-25T12:03:55.164Z,99359.50
2022-10-25T12:10:39.861Z,99363.19
2022-10-25T12:16:43.362Z,99367.06
2022-10-25T12:22:50.081Z,99359.56
2022-10-25T12:28:52.822Z,99361.53
2022-10-25T12:34:56.437Z,99358.47
2022-10-25T12:41:06.986Z,99364.63
2022-10-25T12:47:35.475Z,99361.50
2022-10-25T12:54:35.945Z,99357.66
2022-10-25T13:01:07.539Z,99349.75
2022-10-25T13:07:11.892Z,99345.31
2022-10-25T13:13:28.927Z,99362.22
2022-10-25T13:25:54.325Z,99357.44
2022-10-25T13:32:10.360Z,99351.59
2022-10-25T13:45:56.358Z,99361.41
2022-10-25T13:52:07.456Z,99369.69
2022-10-25T13:58:31.272Z,99357.69
2022-10-25T14:04:38.752Z,99359.56
2022-10-25T14:10:41.220Z,99364.63
2022-10-25T14:16:58.923Z,99363.25
2022-10-25T14:23:15.500Z,99373.22
2022-10-25T14:29:46.360Z,99370.81
2022-10-25T14:36:29.935Z,99381.44
2022-10-25T14:43:30.780Z,99366.84
2022-10-25T14:49:34.433Z,99365.34
2022-10-25T14:55:36.714Z,99369.34
2022-10-25T15:01:42.174Z,99369.09
2022-10-25T15:07:47.071Z,99376.22
2022-10-25T15:13:52.054Z,99380.81
2022-10-25T15:20:16.266Z,99382.81
2022-10-25T15:26:28.068Z,99378.28
2022-10-25T15:32:30.178Z,99367.34
2022-10-25T15:39:05.866Z,99369.44
2022-10-25T15:44:58.830Z,99369.09
2022-10-25T15:51:00.777Z,99364.34
2022-10-25T15:57:03.565Z,99362.84
2022-10-25T16:03:05.956Z,99368.88
2022-10-25T16:09:08.016Z,99362.47
2022-10-25T16:15:15.581Z,99358.06
2022-10-25T16:21:19.669Z,99369.53
2022-10-25T16:27:21.600Z,99364.44
2022-10-25T16:33:23.470Z,99388.75
2022-10-25T16:39:25.375Z,99385.00
2022-10-25T16:45:42.428Z,99381.63
2022-10-25T16:51:44.406Z,99387.34
2022-10-25T17:03:54.632Z,99386.53
2022-10-25T17:09:57.072Z,99384.91
2022-10-25T17:15:58.962Z,99385.47
2022-10-25T17:22:00.907Z,99395.09
2022-10-25T17:28:03.156Z,99386.00
2022-10-25T17:34:05.219Z,99394.19
2022-10-25T17:40:07.934Z,99399.84
2022-10-25T17:52:54.846Z,99408.38
2022-10-25T17:58:58.466Z,99403.59
2022-10-25T18:05:19.450Z,99403.84
2022-10-25T18:11:26.024Z,99396.22
2022-10-25T18:17:28.098Z,99406.16
2022-10-25T18:23:49.970Z,99398.31
2022-10-25T18:36:19.043Z,99402.44
2022-10-25T18:42:21.439Z,99406.59
2022-10-25T18:48:23.451Z,99414.84
2022-10-25T18:54:25.460Z,99412.78
2022-10-25T19:00:31.184Z,99406.78
2022-10-25T19:06:33.883Z,99406.78
2022-10-25T19:12:35.914Z,99403.25
2022-10-25T19:18:38.166Z,99401.00
2022-10-25T19:24:40.084Z,99404.50
2022-10-25T19:30:42.153Z,99409.47
2022-10-25T19:36:44.296Z,99396.19
2022-10-25T19:42:46.716Z,99401.59
2022-10-25T19:55:07.090Z,99404.88
2022-10-25T20:01:15.885Z,99401.53
2022-10-25T20:07:18.663Z,99397.81
2022-10-25T20:13:20.997Z,99397.59
2022-10-25T20:19:22.949Z,99400.06
2022-10-25T20:25:24.865Z,99408.31
2022-10-25T20:31:30.759Z,99416.56
2022-10-25T20:37:32.645Z,99419.25
2022-10-25T20:43:35.067Z,99429.16
2022-10-25T20:49:36.986Z,99432.88
2022-10-25T20:55:39.268Z,99419.63
2022-10-25T21:01:41.518Z,99416.31
2022-10-25T21:07:43.541Z,99425.28
2022-10-25T21:13:46.910Z,99424.91
2022-10-25T21:20:11.452Z,99435.56
2022-10-25T21:26:13.627Z,99429.81
2022-10-25T21:32:15.584Z,99433.91
2022-10-25T21:38:17.866Z,99417.75
2022-10-25T21:44:20.304Z,99409.28
2022-10-25T21:50:22.153Z,99411.53
2022-10-25T21:56:30.692Z,99406.78
2022-10-25T22:02:33.610Z,99408.19
2022-10-25T22:08:36.027Z,99398.88
2022-10-25T22:14:37.970Z,99395.91
2022-10-25T22:20:39.836Z,99392.25
2022-10-25T22:26:44.736Z,99404.00
2022-10-25T22:32:47.100Z,99399.84
2022-10-25T22:38:49.300Z,99394.16
2022-10-25T22:44:51.145Z,99396.03
2022-10-25T22:50:54.546Z,99387.59
2022-10-25T22:56:56.394Z,99390.44
2022-10-25T23:02:58.256Z,99401.44
2022-10-25T23:09:04.273Z,99396.66
2022-10-25T23:15:07.417Z,99400.53
2022-10-25T23:21:18.006Z,99404.50
2022-10-25T23:27:19.857Z,99401.94
2022-10-25T23:33:21.714Z,99406.97
2022-10-25T23:39:23.569Z,99406.09
2022-10-25T23:45:27.050Z,99406.22
2022-10-25T23:51:28.907Z,99399.72
2022-10-25T23:57:30.772Z,99394.56
